Allenton, Missouri
Current Conditions -  °F | °C
As of 4:54 AM on Wednesday 26 Nov 2014 (Local Time) from KSUS Reporting Station
Clear Clear  
Wind Chill: 26°   Ceiling: Unl
Heat Index: 26°   Visibility: 10mi
Dew Point: 23°   Wind: 3mph
Humidity: 88%   Direction: 90°E
Pressure: 30.06"   Gusts: NA
Location:  38.5°N, 90.68°W
Report Text: KSUS 261054Z AUTO 09003KT 10SM CLR M03/M05 A3006 RMK AO2 SLP188 T10331050
Loading
Personal Weather Stations






























Interactive Weather Map New forecast layout! Learn more

10-Day Weather Forecast

Advertisements
Track Severe Weather on mobile